Aéroport Valenciennes-Denain

LFAV · North, Hauts-de-France, 法国

罗盘
风向 的 风向 060° Valenciennes-Denain Airport 11/29
风: 9 kt, 3 beaufort

6 kt

7 kt
改变
0 1.000 2.000 3.000 4.000 5.000
OVC 1.200 ft
SPECI LFQQ 041030Z AUTO 06009KT 8000 OVC012 02/M00 Q1015 TEMPO OVC017

METAR Valenciennes-Denain Airport - LFAV

Valenciennes-Denain Airport是,法国中的中型机场。 该机场有2条跑道: 11/29 和 6/24. 该领域的国际民航组织标志是LFAV.

这份报告是针对2022年12月4日 11:30, 当地时间在Lille-Lesquin Airport进行的。

机场观察

风向为060°,速度为9 kt。

可见度为8 km。

有乌云密布在1.200 ft的高度。 破损或更高的上限为1.200 ft。

温度为2 °C,阵风为-4 °C。 海平面上的气压为1015 hPa (QNH)。

发展趋势

  • 暂时的

    可变方向的风很小或没有。 乌云密布在1.700 ft的高度.

白天

今天,太阳从08:28升起,在16:44降落。 这适用于Valenciennes-Denain Airport,世界夏令时可能有所不同。 当地时间与世界标准时间之间的时差为+1 小时。 当前,没有夏令时有效。

公司介绍

在这个机场,你可以找到飞行俱乐部。 这个机场上的公司有Takeoff Aviation Club & School 和 Aéroclub Valenciennes Hainaut。

体会

到Vliegles.nl去找飞行课程,跳伞和其他飞行体验。 浏览页面,了解Valenciennes-Denain Airport附近所有可用的活动。 你也可以使用搜索功能来寻找你所在地附近的特定飞行课程、跳伞或其他飞行体验。

跑道

Id 标题 侧风 逆风 侧风 %
11/29 110°-290° 7 kt 6 kt 77 %
6/24 062°-242° 9 kt 3 %

逆风成分最大的方向会被突出显示,并用于横风计算。 这并不一定意味着这个方向在使用。

乌云

1.200 ft OVC 乌云密布
1.700 ft OVC 暂时的 乌云密布

温度 & 天气

温度 2 °C
露点 0 °C
相对湿度 87%
风寒 -4 °C
Kp-index 2 (0-9)

白天

日出
08:30
中午
12:37
日落
16:45 (4:50)

小工具

你想在你的网站上有一个关于Valenciennes-Denain Airport的当前航空天气(METAR)的小部件吗?

显示HTML代码

我们和第三方通过cookies跟踪您在我们网站上的互联网行为。如果你继续,我们认为你同意我们的饼干政策